Terminal Aerodrome Forecast
Issued by NWS Sioux Falls, SD

Home | Current Version | Previous Version | Text Only | Print | Product List | Glossary Off
Versions: 1 2 3 4 5 6 7 8 9 10 11 12 13 14 15 16 17 18 19 20

000
FTUS43 KFSD 230207 AAA
TAFFSD
TAF AMD
KFSD 230207Z 2302/2324 28007KT P6SM BKN007 BKN070
     FM230300 28007KT P6SM SCT015 SCT100
     FM230500 24004KT P6SM SKC
     FM231500 19006KT P6SM SCT250=

USA.gov is the U.S. government's official web portal to all federal, state and local government web resources and services.